sensor_id;sensor_type;location;lat;lon;timestamp;pressure;altitude;pressure_sealevel;temperature;humidity
71770;BME280;66386;52.122;5.420;2023-02-28T00:00:12;103311.78;;;0.24;84.89
71770;BME280;66386;52.122;5.420;2023-02-28T00:02:41;103318.41;;;0.22;84.73
71770;BME280;66386;52.122;5.420;2023-02-28T00:05:09;103304.13;;;0.22;84.90
71770;BME280;66386;52.122;5.420;2023-02-28T00:07:37;103306.63;;;0.22;84.81
71770;BME280;66386;52.122;5.420;2023-02-28T00:10:05;103315.34;;;0.29;84.98
71770;BME280;66386;52.122;5.420;2023-02-28T00:12:34;103311.38;;;0.34;85.05
71770;BME280;66386;52.122;5.420;2023-02-28T00:15:02;103315.88;;;0.40;85.52
71770;BME280;66386;52.122;5.420;2023-02-28T00:17:28;103323.66;;;0.44;85.25
71770;BME280;66386;52.122;5.420;2023-02-28T00:19:55;103313.75;;;0.49;85.09
71770;BME280;66386;52.122;5.420;2023-02-28T00:22:22;103323.13;;;0.51;85.25
71770;BME280;66386;52.122;5.420;2023-02-28T00:24:48;103318.22;;;0.55;85.13
71770;BME280;66386;52.122;5.420;2023-02-28T00:27:14;103318.41;;;0.59;85.23
71770;BME280;66386;52.122;5.420;2023-02-28T00:29:41;103314.28;;;0.61;85.27
71770;BME280;66386;52.122;5.420;2023-02-28T00:32:07;103323.75;;;0.65;85.27
71770;BME280;66386;52.122;5.420;2023-02-28T00:34:34;103311.22;;;0.68;85.21
71770;BME280;66386;52.122;5.420;2023-02-28T00:37:08;103305.44;;;0.71;85.26
71770;BME280;66386;52.122;5.420;2023-02-28T00:39:37;103310.63;;;0.74;85.23
71770;BME280;66386;52.122;5.420;2023-02-28T00:42:04;103310.75;;;0.77;85.10
71770;BME280;66386;52.122;5.420;2023-02-28T00:44:31;103310.81;;;0.79;85.00
71770;BME280;66386;52.122;5.420;2023-02-28T00:46:58;103309.25;;;0.81;85.19
71770;BME280;66386;52.122;5.420;2023-02-28T00:49:26;103313.50;;;0.82;85.14
71770;BME280;66386;52.122;5.420;2023-02-28T00:51:53;103312.75;;;0.84;85.25
71770;BME280;66386;52.122;5.420;2023-02-28T00:54:22;103314.50;;;0.85;85.00
71770;BME280;66386;52.122;5.420;2023-02-28T00:56:52;103312.94;;;0.89;85.30
71770;BME280;66386;52.122;5.420;2023-02-28T00:59:18;103307.09;;;0.90;85.15
71770;BME280;66386;52.122;5.420;2023-02-28T01:01:46;103310.56;;;0.92;85.04
71770;BME280;66386;52.122;5.420;2023-02-28T01:04:13;103307.28;;;0.95;85.20
71770;BME280;66386;52.122;5.420;2023-02-28T01:06:40;103319.16;;;0.96;85.25
71770;BME280;66386;52.122;5.420;2023-02-28T01:09:07;103317.53;;;0.98;85.15
71770;BME280;66386;52.122;5.420;2023-02-28T01:11:35;103320.25;;;1.01;85.13
71770;BME280;66386;52.122;5.420;2023-02-28T01:14:02;103316.03;;;1.01;85.23
71770;BME280;66386;52.122;5.420;2023-02-28T01:16:30;103314.34;;;1.02;85.04
71770;BME280;66386;52.122;5.420;2023-02-28T01:18:57;103307.63;;;1.02;85.03
71770;BME280;66386;52.122;5.420;2023-02-28T01:21:24;103310.31;;;1.06;85.10
71770;BME280;66386;52.122;5.420;2023-02-28T01:23:50;103313.75;;;1.08;85.22
71770;BME280;66386;52.122;5.420;2023-02-28T01:26:20;103317.16;;;1.08;85.03
71770;BME280;66386;52.122;5.420;2023-02-28T01:28:48;103311.28;;;1.09;85.07
71770;BME280;66386;52.122;5.420;2023-02-28T01:31:14;103297.88;;;1.12;84.93
71770;BME280;66386;52.122;5.420;2023-02-28T01:33:41;103303.81;;;1.12;85.08
71770;BME280;66386;52.122;5.420;2023-02-28T01:36:14;103302.16;;;1.13;85.02
71770;BME280;66386;52.122;5.420;2023-02-28T01:38:41;103304.69;;;1.13;85.00
71770;BME280;66386;52.122;5.420;2023-02-28T01:41:14;103303.06;;;1.15;84.99
71770;BME280;66386;52.122;5.420;2023-02-28T01:46:11;103299.75;;;1.16;85.08
71770;BME280;66386;52.122;5.420;2023-02-28T01:48:42;103293.00;;;1.16;84.63
71770;BME280;66386;52.122;5.420;2023-02-28T01:51:15;103286.34;;;1.18;84.83
71770;BME280;66386;52.122;5.420;2023-02-28T01:53:56;103293.19;;;1.21;84.76
71770;BME280;66386;52.122;5.420;2023-02-28T01:56:28;103298.25;;;1.21;84.70
71770;BME280;66386;52.122;5.420;2023-02-28T01:58:55;103281.47;;;1.23;84.79
71770;BME280;66386;52.122;5.420;2023-02-28T02:01:23;103281.47;;;1.23;84.70
71770;BME280;66386;52.122;5.420;2023-02-28T02:04:01;103273.06;;;1.24;84.68
71770;BME280;66386;52.122;5.420;2023-02-28T02:06:32;103277.38;;;1.27;84.67
71770;BME280;66386;52.122;5.420;2023-02-28T02:09:00;103272.31;;;1.27;84.78
71770;BME280;66386;52.122;5.420;2023-02-28T02:11:27;103268.13;;;1.27;84.59
71770;BME280;66386;52.122;5.420;2023-02-28T02:22:08;103264.00;;;1.29;84.61
71770;BME280;66386;52.122;5.420;2023-02-28T02:28:03;103273.38;;;1.32;84.67
71770;BME280;66386;52.122;5.420;2023-02-28T02:30:45;103272.56;;;1.33;84.73
71770;BME280;66386;52.122;5.420;2023-02-28T02:36:49;103276.84;;;1.34;84.70
71770;BME280;66386;52.122;5.420;2023-02-28T02:39:20;103273.50;;;1.35;84.91
71770;BME280;66386;52.122;5.420;2023-02-28T02:41:51;103279.44;;;1.35;84.73
71770;BME280;66386;52.122;5.420;2023-02-28T02:44:23;103282.03;;;1.37;84.87
71770;BME280;66386;52.122;5.420;2023-02-28T02:46:55;103275.31;;;1.37;84.70
71770;BME280;66386;52.122;5.420;2023-02-28T02:49:29;103279.56;;;1.38;85.00
71770;BME280;66386;52.122;5.420;2023-02-28T02:52:02;103278.75;;;1.39;85.08
71770;BME280;66386;52.122;5.420;2023-02-28T02:54:35;103278.81;;;1.41;84.89
71770;BME280;66386;52.122;5.420;2023-02-28T02:57:05;103274.69;;;1.43;84.82
71770;BME280;66386;52.122;5.420;2023-02-28T02:59:36;103281.47;;;1.44;85.11
71770;BME280;66386;52.122;5.420;2023-02-28T03:02:08;103279.88;;;1.46;85.34
71770;BME280;66386;52.122;5.420;2023-02-28T03:04:46;103280.75;;;1.47;85.30
71770;BME280;66386;52.122;5.420;2023-02-28T03:07:14;103273.94;;;1.46;85.31
71770;BME280;66386;52.122;5.420;2023-02-28T03:09:50;103283.22;;;1.45;85.43
71770;BME280;66386;52.122;5.420;2023-02-28T03:12:18;103284.97;;;1.46;85.46
71770;BME280;66386;52.122;5.420;2023-02-28T03:14:55;103279.88;;;1.46;85.74
71770;BME280;66386;52.122;5.420;2023-02-28T03:25:54;103271.56;;;1.50;85.94
71770;BME280;66386;52.122;5.420;2023-02-28T03:28:41;103281.72;;;1.50;85.83
71770;BME280;66386;52.122;5.420;2023-02-28T03:33:50;103269.94;;;1.51;86.16
71770;BME280;66386;52.122;5.420;2023-02-28T03:36:29;103287.66;;;1.51;86.19
71770;BME280;66386;52.122;5.420;2023-02-28T03:39:04;103280.88;;;1.50;85.99
71770;BME280;66386;52.122;5.420;2023-02-28T03:41:48;103291.06;;;1.51;86.16
71770;BME280;66386;52.122;5.420;2023-02-28T03:44:21;103289.38;;;1.52;86.24
71770;BME280;66386;52.122;5.420;2023-02-28T03:47:12;103287.66;;;1.51;86.28
71770;BME280;66386;52.122;5.420;2023-02-28T03:50:22;103290.16;;;1.49;86.31
71770;BME280;66386;52.122;5.420;2023-02-28T03:52:57;103293.47;;;1.48;86.20
71770;BME280;66386;52.122;5.420;2023-02-28T03:55:33;103295.09;;;1.46;86.17
71770;BME280;66386;52.122;5.420;2023-02-28T03:58:05;103302.63;;;1.45;86.40
71770;BME280;66386;52.122;5.420;2023-02-28T04:00:40;103300.03;;;1.43;86.35
71770;BME280;66386;52.122;5.420;2023-02-28T04:03:10;103301.63;;;1.41;86.19
71770;BME280;66386;52.122;5.420;2023-02-28T04:05:50;103294.09;;;1.43;86.10
71770;BME280;66386;52.122;5.420;2023-02-28T04:08:18;103288.16;;;1.42;85.90
71770;BME280;66386;52.122;5.420;2023-02-28T04:10:50;103296.56;;;1.41;85.84
71770;BME280;66386;52.122;5.420;2023-02-28T04:13:17;103293.16;;;1.41;85.64
71770;BME280;66386;52.122;5.420;2023-02-28T04:15:44;103303.25;;;1.39;85.05
71770;BME280;66386;52.122;5.420;2023-02-28T04:18:10;103297.28;;;1.38;82.58
71770;BME280;66386;52.122;5.420;2023-02-28T04:20:37;103298.13;;;1.37;81.63
71770;BME280;66386;52.122;5.420;2023-02-28T04:23:03;103293.84;;;1.36;81.06
71770;BME280;66386;52.122;5.420;2023-02-28T04:25:30;103299.63;;;1.34;80.99
71770;BME280;66386;52.122;5.420;2023-02-28T04:27:56;103297.03;;;1.32;81.15
71770;BME280;66386;52.122;5.420;2023-02-28T04:30:22;103305.38;;;1.30;80.85
71770;BME280;66386;52.122;5.420;2023-02-28T04:32:49;103308.69;;;1.27;80.52
71770;BME280;66386;52.122;5.420;2023-02-28T04:35:15;103309.34;;;1.23;79.98
71770;BME280;66386;52.122;5.420;2023-02-28T04:37:42;103305.88;;;1.21;79.81
71770;BME280;66386;52.122;5.420;2023-02-28T04:40:09;103310.94;;;1.21;79.23
71770;BME280;66386;52.122;5.420;2023-02-28T04:42:36;103315.94;;;1.19;79.29
71770;BME280;66386;52.122;5.420;2023-02-28T04:45:03;103323.53;;;1.19;79.36
71770;BME280;66386;52.122;5.420;2023-02-28T04:47:30;103317.53;;;1.17;79.42
71770;BME280;66386;52.122;5.420;2023-02-28T04:49:56;103324.28;;;1.17;79.28
71770;BME280;66386;52.122;5.420;2023-02-28T04:52:23;103314.81;;;1.13;79.25
71770;BME280;66386;52.122;5.420;2023-02-28T04:54:49;103308.03;;;1.12;79.22
71770;BME280;66386;52.122;5.420;2023-02-28T04:57:16;103312.97;;;1.09;78.90
71770;BME280;66386;52.122;5.420;2023-02-28T04:59:43;103316.16;;;1.04;79.07
71770;BME280;66386;52.122;5.420;2023-02-28T05:02:10;103314.28;;;1.00;79.49
71770;BME280;66386;52.122;5.420;2023-02-28T05:04:36;103311.63;;;0.97;79.80
71770;BME280;66386;52.122;5.420;2023-02-28T05:07:03;103312.28;;;0.93;80.35
71770;BME280;66386;52.122;5.420;2023-02-28T05:09:30;103309.56;;;0.89;80.72
71770;BME280;66386;52.122;5.420;2023-02-28T05:11:56;103311.19;;;0.86;81.14
71770;BME280;66386;52.122;5.420;2023-02-28T05:14:23;103311.91;;;0.84;81.75
71770;BME280;66386;52.122;5.420;2023-02-28T05:16:49;103315.16;;;0.81;81.95
71770;BME280;66386;52.122;5.420;2023-02-28T05:19:16;103315.81;;;0.77;82.33
71770;BME280;66386;52.122;5.420;2023-02-28T05:21:51;103324.03;;;0.72;82.28
71770;BME280;66386;52.122;5.420;2023-02-28T05:24:19;103325.53;;;0.68;82.49
71770;BME280;66386;52.122;5.420;2023-02-28T05:26:51;103322.88;;;0.65;82.95
71770;BME280;66386;52.122;5.420;2023-02-28T05:29:18;103327.03;;;0.63;83.31
71770;BME280;66386;52.122;5.420;2023-02-28T05:31:45;103321.06;;;0.62;83.50
71770;BME280;66386;52.122;5.420;2023-02-28T05:34:12;103325.41;;;0.65;83.59
71770;BME280;66386;52.122;5.420;2023-02-28T05:36:39;103326.06;;;0.61;83.55
71770;BME280;66386;52.122;5.420;2023-02-28T05:39:06;103326.84;;;0.60;84.08
71770;BME280;66386;52.122;5.420;2023-02-28T05:41:40;103321.22;;;0.65;84.13
71770;BME280;66386;52.122;5.420;2023-02-28T05:44:07;103319.63;;;0.67;84.23
71770;BME280;66386;52.122;5.420;2023-02-28T05:46:34;103315.56;;;0.71;84.45
71770;BME280;66386;52.122;5.420;2023-02-28T05:49:01;103328.22;;;0.71;84.32
71770;BME280;66386;52.122;5.420;2023-02-28T05:51:27;103323.09;;;0.69;84.39
71770;BME280;66386;52.122;5.420;2023-02-28T05:53:54;103323.94;;;0.70;84.24
71770;BME280;66386;52.122;5.420;2023-02-28T05:56:24;103327.28;;;0.69;84.54
71770;BME280;66386;52.122;5.420;2023-02-28T05:58:50;103328.06;;;0.68;84.60
71770;BME280;66386;52.122;5.420;2023-02-28T06:01:35;103327.09;;;0.64;84.88
71770;BME280;66386;52.122;5.420;2023-02-28T06:04:04;103319.50;;;0.64;84.90
71770;BME280;66386;52.122;5.420;2023-02-28T06:06:31;103324.56;;;0.64;85.27
71770;BME280;66386;52.122;5.420;2023-02-28T06:08:59;103321.78;;;0.60;85.27
71770;BME280;66386;52.122;5.420;2023-02-28T06:11:25;103322.63;;;0.59;85.21
71770;BME280;66386;52.122;5.420;2023-02-28T06:13:57;103330.06;;;0.56;85.39
71770;BME280;66386;52.122;5.420;2023-02-28T06:16:27;103315.75;;;0.56;85.50
71770;BME280;66386;52.122;5.420;2023-02-28T06:18:56;103320.69;;;0.53;85.75
71770;BME280;66386;52.122;5.420;2023-02-28T06:21:23;103321.41;;;0.50;85.79
71770;BME280;66386;52.122;5.420;2023-02-28T06:23:50;103314.66;;;0.51;86.20
71770;BME280;66386;52.122;5.420;2023-02-28T06:26:17;103311.28;;;0.50;86.25
71770;BME280;66386;52.122;5.420;2023-02-28T06:28:43;103311.16;;;0.47;86.46
71770;BME280;66386;52.122;5.420;2023-02-28T06:31:11;103311.16;;;0.47;86.85
71770;BME280;66386;52.122;5.420;2023-02-28T06:33:39;103315.19;;;0.44;86.66
71770;BME280;66386;52.122;5.420;2023-02-28T06:36:07;103321.91;;;0.43;86.93
71770;BME280;66386;52.122;5.420;2023-02-28T06:38:34;103314.31;;;0.43;86.92
71770;BME280;66386;52.122;5.420;2023-02-28T06:41:02;103315.19;;;0.44;87.34
71770;BME280;66386;52.122;5.420;2023-02-28T06:43:30;103309.25;;;0.43;87.21
71770;BME280;66386;52.122;5.420;2023-02-28T06:45:58;103309.34;;;0.45;87.23
71770;BME280;66386;52.122;5.420;2023-02-28T06:48:26;103316.94;;;0.45;87.51
71770;BME280;66386;52.122;5.420;2023-02-28T06:51:08;103314.47;;;0.46;87.59
71770;BME280;66386;52.122;5.420;2023-02-28T06:53:35;103306.09;;;0.47;87.79
71770;BME280;66386;52.122;5.420;2023-02-28T06:56:10;103330.53;;;0.47;88.03
71770;BME280;66386;52.122;5.420;2023-02-28T06:58:38;103321.41;;;0.50;88.19
71770;BME280;66386;52.122;5.420;2023-02-28T07:01:06;103324.06;;;0.54;88.06
71770;BME280;66386;52.122;5.420;2023-02-28T07:03:35;103330.94;;;0.56;87.96
71770;BME280;66386;52.122;5.420;2023-02-28T07:06:02;103332.81;;;0.60;87.94
71770;BME280;66386;52.122;5.420;2023-02-28T07:08:30;103329.47;;;0.61;88.15
71770;BME280;66386;52.122;5.420;2023-02-28T07:10:57;103338.94;;;0.65;88.32
71770;BME280;66386;52.122;5.420;2023-02-28T07:13:24;103328.94;;;0.68;88.16
71770;BME280;66386;52.122;5.420;2023-02-28T07:16:03;103329.88;;;0.71;88.41
71770;BME280;66386;52.122;5.420;2023-02-28T07:18:30;103336.88;;;0.76;88.51
71770;BME280;66386;52.122;5.420;2023-02-28T07:20:56;103320.16;;;0.80;88.56
71770;BME280;66386;52.122;5.420;2023-02-28T07:23:23;103331.31;;;0.83;88.21
71770;BME280;66386;52.122;5.420;2023-02-28T07:25:50;103333.06;;;0.86;88.28
71770;BME280;66386;52.122;5.420;2023-02-28T07:28:17;103343.25;;;0.87;88.34
71770;BME280;66386;52.122;5.420;2023-02-28T07:30:45;103340.81;;;0.89;88.54
71770;BME280;66386;52.122;5.420;2023-02-28T07:33:11;103339.22;;;0.91;88.48
71770;BME280;66386;52.122;5.420;2023-02-28T07:35:38;103331.69;;;0.93;88.60
71770;BME280;66386;52.122;5.420;2023-02-28T07:38:05;103326.75;;;0.96;88.68
71770;BME280;66386;52.122;5.420;2023-02-28T07:40:31;103334.53;;;1.00;88.64
71770;BME280;66386;52.122;5.420;2023-02-28T07:42:59;103344.81;;;1.03;88.84
71770;BME280;66386;52.122;5.420;2023-02-28T07:45:27;103344.88;;;1.05;88.75
71770;BME280;66386;52.122;5.420;2023-02-28T07:47:55;103349.13;;;1.06;88.53
71770;BME280;66386;52.122;5.420;2023-02-28T07:50:22;103352.75;;;1.11;88.81
71770;BME280;66386;52.122;5.420;2023-02-28T07:52:50;103347.09;;;1.17;88.65
71770;BME280;66386;52.122;5.420;2023-02-28T07:55:17;103345.47;;;1.19;88.61
71770;BME280;66386;52.122;5.420;2023-02-28T07:57:44;103349.06;;;1.24;88.44
71770;BME280;66386;52.122;5.420;2023-02-28T08:00:11;103350.91;;;1.28;88.27
71770;BME280;66386;52.122;5.420;2023-02-28T08:02:40;103342.03;;;1.38;88.03
71770;BME280;66386;52.122;5.420;2023-02-28T08:05:07;103355.78;;;1.43;88.33
71770;BME280;66386;52.122;5.420;2023-02-28T08:07:33;103357.38;;;1.41;88.08
71770;BME280;66386;52.122;5.420;2023-02-28T08:10:00;103361.59;;;1.41;87.83
71770;BME280;66386;52.122;5.420;2023-02-28T08:12:26;103366.59;;;1.39;87.72
71770;BME280;66386;52.122;5.420;2023-02-28T08:14:53;103374.25;;;1.41;87.79
71770;BME280;66386;52.122;5.420;2023-02-28T08:17:19;103366.66;;;1.41;87.75
71770;BME280;66386;52.122;5.420;2023-02-28T08:19:46;103376.06;;;1.43;87.78
71770;BME280;66386;52.122;5.420;2023-02-28T08:22:12;103379.50;;;1.45;87.78
71770;BME280;66386;52.122;5.420;2023-02-28T08:24:41;103378.78;;;1.48;87.68
71770;BME280;66386;52.122;5.420;2023-02-28T08:27:09;103369.75;;;1.54;87.70
71770;BME280;66386;52.122;5.420;2023-02-28T08:29:38;103375.22;;;1.64;87.79
71770;BME280;66386;52.122;5.420;2023-02-28T08:32:06;103367.75;;;1.67;87.77
71770;BME280;66386;52.122;5.420;2023-02-28T08:34:49;103369.59;;;1.71;87.09
71770;BME280;66386;52.122;5.420;2023-02-28T08:37:15;103364.59;;;1.72;86.42
71770;BME280;66386;52.122;5.420;2023-02-28T08:39:41;103362.28;;;1.79;86.08
71770;BME280;66386;52.122;5.420;2023-02-28T08:42:11;103375.94;;;1.82;85.59
71770;BME280;66386;52.122;5.420;2023-02-28T08:44:37;103365.00;;;1.83;85.10
71770;BME280;66386;52.122;5.420;2023-02-28T08:47:04;103366.00;;;1.87;84.76
71770;BME280;66386;52.122;5.420;2023-02-28T08:49:30;103361.13;;;1.91;84.16
71770;BME280;66386;52.122;5.420;2023-02-28T08:51:57;103362.09;;;1.95;83.81
71770;BME280;66386;52.122;5.420;2023-02-28T08:54:24;103366.56;;;2.01;83.20
71770;BME280;66386;52.122;5.420;2023-02-28T08:56:51;103360.69;;;2.02;82.38
71770;BME280;66386;52.122;5.420;2023-02-28T08:59:18;103360.00;;;2.06;81.86
71770;BME280;66386;52.122;5.420;2023-02-28T09:01:44;103366.91;;;2.10;81.12
71770;BME280;66386;52.122;5.420;2023-02-28T09:04:10;103361.25;;;2.17;80.66
71770;BME280;66386;52.122;5.420;2023-02-28T09:06:42;103360.97;;;2.32;80.41
71770;BME280;66386;52.122;5.420;2023-02-28T09:09:08;103364.34;;;2.54;79.55
71770;BME280;66386;52.122;5.420;2023-02-28T09:11:36;103360.22;;;2.80;78.52
71770;BME280;66386;52.122;5.420;2023-02-28T09:14:03;103354.97;;;3.24;76.67
71770;BME280;66386;52.122;5.420;2023-02-28T09:16:31;103362.88;;;3.83;74.85
71770;BME280;66386;52.122;5.420;2023-02-28T09:18:59;103361.25;;;4.41;72.69
71770;BME280;66386;52.122;5.420;2023-02-28T09:21:25;103359.34;;;4.64;70.46
71770;BME280;66386;52.122;5.420;2023-02-28T09:23:52;103355.66;;;4.53;67.69
71770;BME280;66386;52.122;5.420;2023-02-28T09:26:24;103357.22;;;4.49;66.72
71770;BME280;66386;52.122;5.420;2023-02-28T09:28:51;103356.97;;;4.40;65.11
71770;BME280;66386;52.122;5.420;2023-02-28T09:31:21;103361.09;;;4.36;65.03
71770;BME280;66386;52.122;5.420;2023-02-28T09:33:49;103362.63;;;4.30;62.16
71770;BME280;66386;52.122;5.420;2023-02-28T09:36:17;103359.06;;;4.25;62.29
71770;BME280;66386;52.122;5.420;2023-02-28T09:38:44;103365.72;;;4.48;60.21
71770;BME280;66386;52.122;5.420;2023-02-28T09:41:16;103368.16;;;4.45;59.52
71770;BME280;66386;52.122;5.420;2023-02-28T09:43:46;103359.72;;;4.19;59.74
71770;BME280;66386;52.122;5.420;2023-02-28T09:46:29;103365.06;;;3.99;59.20
71770;BME280;66386;52.122;5.420;2023-02-28T09:49:00;103369.19;;;3.94;59.03
71770;BME280;66386;52.122;5.420;2023-02-28T09:54:43;103374.19;;;3.93;57.81
71770;BME280;66386;52.122;5.420;2023-02-28T10:05:52;103362.91;;;4.41;56.33
71770;BME280;66386;52.122;5.420;2023-02-28T10:10:55;103364.31;;;4.60;56.10
71770;BME280;66386;52.122;5.420;2023-02-28T10:13:26;103354.63;;;4.77;54.92
71770;BME280;66386;52.122;5.420;2023-02-28T10:16:02;103356.38;;;5.10;55.12
71770;BME280;66386;52.122;5.420;2023-02-28T10:18:49;103347.25;;;5.53;52.73
71770;BME280;66386;52.122;5.420;2023-02-28T10:21:34;103349.25;;;5.65;53.84
71770;BME280;66386;52.122;5.420;2023-02-28T10:26:48;103338.59;;;5.81;50.95
71770;BME280;66386;52.122;5.420;2023-02-28T10:29:15;103349.53;;;5.75;50.01
71770;BME280;66386;52.122;5.420;2023-02-28T10:31:41;103345.38;;;5.81;49.37
71770;BME280;66386;52.122;5.420;2023-02-28T10:34:11;103345.34;;;5.79;49.04
71770;BME280;66386;52.122;5.420;2023-02-28T10:36:39;103346.03;;;5.72;48.91
71770;BME280;66386;52.122;5.420;2023-02-28T10:39:34;103337.44;;;5.68;49.62
71770;BME280;66386;52.122;5.420;2023-02-28T10:42:01;103346.94;;;5.74;49.59
71770;BME280;66386;52.122;5.420;2023-02-28T10:44:28;103345.78;;;5.61;49.05
71770;BME280;66386;52.122;5.420;2023-02-28T10:46:55;103342.06;;;5.48;48.71
71770;BME280;66386;52.122;5.420;2023-02-28T10:49:27;103338.06;;;5.58;48.92
71770;BME280;66386;52.122;5.420;2023-02-28T10:52:00;103346.06;;;5.73;48.27
71770;BME280;66386;52.122;5.420;2023-02-28T10:54:31;103334.19;;;5.74;48.57
71770;BME280;66386;52.122;5.420;2023-02-28T10:59:44;103327.66;;;5.87;49.56
71770;BME280;66386;52.122;5.420;2023-02-28T11:02:30;103331.84;;;5.83;47.48
71770;BME280;66386;52.122;5.420;2023-02-28T11:04:57;103324.81;;;5.74;48.48
71770;BME280;66386;52.122;5.420;2023-02-28T11:07:25;103313.16;;;5.84;47.45
71770;BME280;66386;52.122;5.420;2023-02-28T11:09:57;103315.63;;;5.81;48.49
71770;BME280;66386;52.122;5.420;2023-02-28T11:12:37;103315.06;;;5.94;48.11
71770;BME280;66386;52.122;5.420;2023-02-28T11:15:23;103316.13;;;6.03;48.21
71770;BME280;66386;52.122;5.420;2023-02-28T11:20:49;103319.81;;;6.16;48.15
71770;BME280;66386;52.122;5.420;2023-02-28T11:23:17;103306.28;;;6.20;47.26
71770;BME280;66386;52.122;5.420;2023-02-28T11:25:50;103309.66;;;6.19;47.24
71770;BME280;66386;52.122;5.420;2023-02-28T11:28:32;103299.31;;;6.13;46.63
71770;BME280;66386;52.122;5.420;2023-02-28T11:33:28;103308.63;;;6.09;46.14
71770;BME280;66386;52.122;5.420;2023-02-28T11:36:08;103306.56;;;5.95;45.83
71770;BME280;66386;52.122;5.420;2023-02-28T11:38:36;103297.81;;;5.83;45.75
71770;BME280;66386;52.122;5.420;2023-02-28T11:41:40;103295.47;;;5.93;46.41
71770;BME280;66386;52.122;5.420;2023-02-28T11:44:26;103299.09;;;6.02;46.71
71770;BME280;66386;52.122;5.420;2023-02-28T11:46:59;103291.53;;;6.06;46.36
71770;BME280;66386;52.122;5.420;2023-02-28T11:49:34;103289.88;;;6.08;46.29
71770;BME280;66386;52.122;5.420;2023-02-28T11:52:29;103289.31;;;6.23;45.95
71770;BME280;66386;52.122;5.420;2023-02-28T11:57:52;103291.22;;;6.32;45.79
71770;BME280;66386;52.122;5.420;2023-02-28T12:00:54;103285.41;;;6.41;46.05
71770;BME280;66386;52.122;5.420;2023-02-28T12:03:45;103287.69;;;6.25;45.13
71770;BME280;66386;52.122;5.420;2023-02-28T12:15:42;103272.47;;;6.32;45.52
71770;BME280;66386;52.122;5.420;2023-02-28T12:21:01;103279.25;;;6.29;44.39
71770;BME280;66386;52.122;5.420;2023-02-28T12:26:38;103271.53;;;6.26;44.34
71770;BME280;66386;52.122;5.420;2023-02-28T12:29:26;103263.66;;;6.17;43.35
71770;BME280;66386;52.122;5.420;2023-02-28T12:32:05;103255.06;;;6.12;44.26
71770;BME280;66386;52.122;5.420;2023-02-28T12:34:52;103245.78;;;6.17;44.32
71770;BME280;66386;52.122;5.420;2023-02-28T12:37:41;103255.44;;;6.32;44.19
71770;BME280;66386;52.122;5.420;2023-02-28T12:40:19;103248.03;;;6.44;43.89
71770;BME280;66386;52.122;5.420;2023-02-28T12:42:51;103262.41;;;6.39;43.39
71770;BME280;66386;52.122;5.420;2023-02-28T12:48:00;103257.84;;;6.23;43.55
71770;BME280;66386;52.122;5.420;2023-02-28T12:50:29;103242.44;;;6.20;44.08
71770;BME280;66386;52.122;5.420;2023-02-28T12:53:03;103250.19;;;6.24;44.00
71770;BME280;66386;52.122;5.420;2023-02-28T12:55:43;103242.72;;;6.34;43.94
71770;BME280;66386;52.122;5.420;2023-02-28T12:58:39;103241.69;;;6.24;42.90
71770;BME280;66386;52.122;5.420;2023-02-28T13:07:14;103228.84;;;6.19;43.94
71770;BME280;66386;52.122;5.420;2023-02-28T13:09:55;103230.72;;;6.28;44.02
71770;BME280;66386;52.122;5.420;2023-02-28T13:12:22;103229.72;;;6.21;43.61
71770;BME280;66386;52.122;5.420;2023-02-28T13:14:50;103227.88;;;6.14;43.10
71770;BME280;66386;52.122;5.420;2023-02-28T13:17:21;103224.47;;;6.14;43.75
71770;BME280;66386;52.122;5.420;2023-02-28T13:22:42;103223.91;;;6.28;42.92
71770;BME280;66386;52.122;5.420;2023-02-28T13:27:50;103217.22;;;6.35;43.18
71770;BME280;66386;52.122;5.420;2023-02-28T13:33:34;103211.38;;;6.42;43.47
71770;BME280;66386;52.122;5.420;2023-02-28T13:38:43;103212.81;;;6.28;43.17
71770;BME280;66386;52.122;5.420;2023-02-28T13:44:05;103207.88;;;6.37;42.54
71770;BME280;66386;52.122;5.420;2023-02-28T13:46:34;103208.69;;;6.35;42.91
71770;BME280;66386;52.122;5.420;2023-02-28T14:00:35;103195.78;;;6.27;42.72
71770;BME280;66386;52.122;5.420;2023-02-28T14:06:09;103194.97;;;6.29;41.98
71770;BME280;66386;52.122;5.420;2023-02-28T14:08:58;103189.59;;;6.16;42.27
71770;BME280;66386;52.122;5.420;2023-02-28T14:11:35;103188.81;;;6.20;43.08
71770;BME280;66386;52.122;5.420;2023-02-28T14:14:04;103177.72;;;6.18;42.44
71770;BME280;66386;52.122;5.420;2023-02-28T14:16:47;103182.72;;;6.13;42.37
71770;BME280;66386;52.122;5.420;2023-02-28T14:19:24;103191.25;;;6.12;42.70
71770;BME280;66386;52.122;5.420;2023-02-28T14:27:52;103173.16;;;6.03;42.73
71770;BME280;66386;52.122;5.420;2023-02-28T14:38:05;103181.81;;;6.09;43.15
71770;BME280;66386;52.122;5.420;2023-02-28T14:40:34;103175.88;;;6.10;43.51
71770;BME280;66386;52.122;5.420;2023-02-28T14:43:06;103178.50;;;6.14;43.41
71770;BME280;66386;52.122;5.420;2023-02-28T14:45:34;103172.63;;;6.18;44.01
71770;BME280;66386;52.122;5.420;2023-02-28T14:48:08;103176.13;;;6.23;43.24
71770;BME280;66386;52.122;5.420;2023-02-28T14:50:37;103165.97;;;6.27;43.29
71770;BME280;66386;52.122;5.420;2023-02-28T14:53:06;103167.78;;;6.33;43.34
71770;BME280;66386;52.122;5.420;2023-02-28T14:55:45;103171.00;;;6.23;43.06
71770;BME280;66386;52.122;5.420;2023-02-28T14:58:41;103171.81;;;6.20;43.43
71770;BME280;66386;52.122;5.420;2023-02-28T15:01:19;103170.09;;;6.19;43.37
71770;BME280;66386;52.122;5.420;2023-02-28T15:03:47;103170.84;;;6.14;43.10
71770;BME280;66386;52.122;5.420;2023-02-28T15:06:16;103173.41;;;6.15;43.34
71770;BME280;66386;52.122;5.420;2023-02-28T15:08:47;103167.47;;;6.16;43.45
71770;BME280;66386;52.122;5.420;2023-02-28T15:11:18;103171.78;;;6.19;43.49
71770;BME280;66386;52.122;5.420;2023-02-28T15:13:52;103168.41;;;6.20;43.87
71770;BME280;66386;52.122;5.420;2023-02-28T15:16:37;103165.88;;;6.21;43.57
71770;BME280;66386;52.122;5.420;2023-02-28T15:19:14;103170.09;;;6.19;43.50
71770;BME280;66386;52.122;5.420;2023-02-28T15:21:45;103172.69;;;6.21;43.71